DAL864 KMSY-MMMD
Flight info
| Callsign | DAL864 |
|---|---|
| Flight time | N/A |
| Altitude | 37000 |
| Route | LEV A770 KEHLI UA770 MID |
| Aircraft | A321/M-SDE3FGHIRWY/LB1 |
Departure
| Time | N/A |
|---|---|
| Airport | Louis Armstrong New Orleans International Airport (KMSY) |
Arrival
| Time | 2026-05-06 17:54 |
|---|---|
| Airport | Manuel Crescencio Rejón International Airport (MMMD) |
| Time | Latitude | Longitude | Altitude | Speed | Heading |
|---|---|---|---|---|---|
| 2026-05-06 17:43 | 21.45294 | -89.68317 | 11454 ft | 381 kts | 180° |
| 2026-05-06 17:43 | 21.42749 | -89.68284 | 11286 ft | 350 kts | 176° |
| 2026-05-06 17:43 | 21.40422 | -89.68179 | 11048 ft | 321 kts | 175° |
| 2026-05-06 17:43 | 21.38246 | -89.68037 | 10511 ft | 308 kts | 174° |
| 2026-05-06 17:44 | 21.36145 | -89.67888 | 10080 ft | 295 kts | 174° |
| 2026-05-06 17:44 | 21.34117 | -89.67748 | 9904 ft | 289 kts | 174° |
| 2026-05-06 17:44 | 21.32115 | -89.67617 | 9787 ft | 288 kts | 174° |
| 2026-05-06 17:44 | 21.30117 | -89.67494 | 9662 ft | 287 kts | 174° |
| 2026-05-06 17:45 | 21.28129 | -89.67379 | 9537 ft | 286 kts | 174° |
| 2026-05-06 17:45 | 21.26145 | -89.67271 | 9409 ft | 285 kts | 175° |
| 2026-05-06 17:45 | 21.24163 | -89.67168 | 9283 ft | 284 kts | 174° |
| 2026-05-06 17:45 | 21.22193 | -89.67067 | 9157 ft | 283 kts | 174° |
| 2026-05-06 17:46 | 21.20224 | -89.66967 | 8871 ft | 284 kts | 175° |
| 2026-05-06 17:46 | 21.18255 | -89.66866 | 8494 ft | 282 kts | 175° |
| 2026-05-06 17:46 | 21.16298 | -89.66767 | 8040 ft | 283 kts | 175° |
| 2026-05-06 17:46 | 21.14363 | -89.66671 | 7843 ft | 274 kts | 174° |
| 2026-05-06 17:47 | 21.12475 | -89.66699 | 7553 ft | 272 kts | 189° |
| 2026-05-06 17:47 | 21.10828 | -89.67651 | 7239 ft | 275 kts | 226° |
| 2026-05-06 17:47 | 21.09885 | -89.69420 | 6817 ft | 274 kts | 248° |
| 2026-05-06 17:47 | 21.09313 | -89.71375 | 6094 ft | 275 kts | 252° |
| 2026-05-06 17:48 | 21.08710 | -89.73305 | 5374 ft | 272 kts | 243° |
| 2026-05-06 17:48 | 21.07893 | -89.75105 | 4715 ft | 266 kts | 236° |
| 2026-05-06 17:48 | 21.06862 | -89.76723 | 4081 ft | 262 kts | 227° |
| 2026-05-06 17:48 | 21.05673 | -89.78150 | 3587 ft | 258 kts | 219° |
| 2026-05-06 17:49 | 21.04352 | -89.79419 | 3182 ft | 251 kts | 212° |
| 2026-05-06 17:49 | 21.03009 | -89.80468 | 3117 ft | 229 kts | 209° |
| 2026-05-06 17:49 | 21.01668 | -89.81323 | 3047 ft | 223 kts | 201° |
| 2026-05-06 17:49 | 21.00253 | -89.82005 | 2950 ft | 217 kts | 188° |
| 2026-05-06 17:50 | 20.98804 | -89.81930 | 2853 ft | 207 kts | 155° |
| 2026-05-06 17:50 | 20.97737 | -89.81027 | 2751 ft | 192 kts | 124° |
| 2026-05-06 17:50 | 20.97291 | -89.79779 | 2661 ft | 169 kts | 108° |
| 2026-05-06 17:50 | 20.97001 | -89.78625 | 2506 ft | 157 kts | 108° |
| 2026-05-06 17:51 | 20.96718 | -89.77517 | 2294 ft | 152 kts | 109° |
| 2026-05-06 17:51 | 20.96442 | -89.76443 | 2092 ft | 149 kts | 109° |
| 2026-05-06 17:51 | 20.96179 | -89.75411 | 1931 ft | 140 kts | 111° |
| 2026-05-06 17:51 | 20.95925 | -89.74420 | 1728 ft | 138 kts | 109° |
| 2026-05-06 17:52 | 20.95669 | -89.73429 | 1535 ft | 139 kts | 111° |
| 2026-05-06 17:52 | 20.95414 | -89.72441 | 1311 ft | 140 kts | 110° |
| 2026-05-06 17:52 | 20.95159 | -89.71453 | 1125 ft | 137 kts | 108° |
| 2026-05-06 17:52 | 20.94909 | -89.70474 | 967 ft | 134 kts | 111° |
| 2026-05-06 17:53 | 20.94654 | -89.69496 | 787 ft | 139 kts | 109° |
| 2026-05-06 17:53 | 20.94386 | -89.68510 | 608 ft | 137 kts | 112° |
| 2026-05-06 17:53 | 20.94172 | -89.67531 | 417 ft | 134 kts | 113° |
| 2026-05-06 17:53 | 20.93900 | -89.66564 | 226 ft | 137 kts | 111° |
| 2026-05-06 17:54 | 20.93649 | -89.65596 | 68 ft | 134 kts | 112° |
| 2026-05-06 17:54 | 20.93491 | -89.64979 | 37 ft | 123 kts | 105° |
| 2026-05-06 17:54 | 20.93329 | -89.64333 | 41 ft | 34 kts | 103° |
| 2026-05-06 17:54 | 20.93285 | -89.64293 | 40 ft | 7 kts | 188° |
| 2026-05-06 17:55 | 20.93235 | -89.64308 | 40 ft | 8 kts | 201° |
| 2026-05-06 17:55 | 20.93180 | -89.64331 | 39 ft | 9 kts | 202° |
| 2026-05-06 17:55 | 20.93154 | -89.64384 | 39 ft | 9 kts | 270° |
| 2026-05-06 17:55 | 20.93164 | -89.64446 | 39 ft | 9 kts | 283° |
| 2026-05-06 17:56 | 20.93180 | -89.64510 | 39 ft | 10 kts | 286° |
| 2026-05-06 17:56 | 20.93207 | -89.64608 | 39 ft | 18 kts | 285° |
| 2026-05-06 17:56 | 20.93246 | -89.64764 | 39 ft | 24 kts | 284° |
| 2026-05-06 17:56 | 20.93290 | -89.64931 | 38 ft | 23 kts | 285° |
| 2026-05-06 17:57 | 20.93331 | -89.65093 | 37 ft | 22 kts | 284° |
| 2026-05-06 17:57 | 20.93370 | -89.65249 | 38 ft | 21 kts | 285° |
| 2026-05-06 17:57 | 20.93409 | -89.65400 | 38 ft | 20 kts | 286° |
| 2026-05-06 17:57 | 20.93446 | -89.65541 | 38 ft | 19 kts | 285° |
| 2026-05-06 17:58 | 20.93479 | -89.65677 | 38 ft | 18 kts | 286° |
| 2026-05-06 17:58 | 20.93513 | -89.65803 | 40 ft | 18 kts | 285° |
| 2026-05-06 17:58 | 20.93546 | -89.65941 | 37 ft | 20 kts | 280° |
| 2026-05-06 17:58 | 20.93555 | -89.66094 | 39 ft | 17 kts | 290° |
| 2026-05-06 17:59 | 20.93569 | -89.66188 | 39 ft | 11 kts | 244° |
| 2026-05-06 17:59 | 20.93543 | -89.66212 | 39 ft | 4 kts | 212° |
| 2026-05-06 17:59 | 20.93537 | -89.66216 | 39 ft | 0 kts | 211° |